createdAt,value
2019-06-01T00:00:12.292Z,997.33
2019-06-01T00:01:11.596Z,997.39
2019-06-01T00:02:11.751Z,997.36
2019-06-01T00:03:11.905Z,997.37
2019-06-01T00:04:12.013Z,997.37
2019-06-01T00:05:12.156Z,997.40
2019-06-01T00:06:12.305Z,997.38
2019-06-01T00:07:12.430Z,997.41
2019-06-01T00:08:12.564Z,997.42
2019-06-01T00:09:12.706Z,997.38
2019-06-01T00:10:12.857Z,997.36
2019-06-01T00:11:13.065Z,997.38
2019-06-01T00:12:13.069Z,997.37
2019-06-01T00:13:13.204Z,997.35
2019-06-01T00:14:13.344Z,997.39
2019-06-01T00:15:13.472Z,997.37
2019-06-01T00:16:13.603Z,997.33
2019-06-01T00:17:13.743Z,997.32
2019-06-01T00:18:13.890Z,997.31
2019-06-01T00:19:14.038Z,997.32
2019-06-01T00:20:14.179Z,997.31
2019-06-01T00:21:14.312Z,997.33
2019-06-01T00:22:14.505Z,997.31
2019-06-01T00:23:14.679Z,997.30
2019-06-01T00:24:14.812Z,997.29
2019-06-01T00:25:14.955Z,997.27
2019-06-01T00:26:15.097Z,997.30
2019-06-01T00:27:15.227Z,997.26
2019-06-01T00:28:15.366Z,997.29
2019-06-01T00:29:15.500Z,997.31
2019-06-01T00:30:26.593Z,997.32
2019-06-01T00:31:15.797Z,997.31
2019-06-01T00:32:15.930Z,997.33
2019-06-01T00:33:16.069Z,997.34
2019-06-01T00:34:16.246Z,997.35
2019-06-01T00:35:16.368Z,997.29
2019-06-01T00:36:16.506Z,997.29
2019-06-01T00:37:16.638Z,997.27
2019-06-01T00:38:16.788Z,997.27
2019-06-01T00:39:16.918Z,997.28
2019-06-01T00:40:17.063Z,997.25
2019-06-01T00:41:17.183Z,997.27
2019-06-01T00:42:17.330Z,997.29
2019-06-01T00:43:17.469Z,997.22
2019-06-01T00:44:17.605Z,997.28
2019-06-01T00:45:17.744Z,997.27
2019-06-01T00:46:17.858Z,997.25
2019-06-01T00:47:18.035Z,997.27
2019-06-01T00:48:18.154Z,997.30
2019-06-01T00:49:18.288Z,997.26
2019-06-01T00:50:18.450Z,997.24
2019-06-01T00:51:18.591Z,997.30
2019-06-01T00:52:18.711Z,997.29
2019-06-01T00:53:18.851Z,997.30
2019-06-01T00:54:18.980Z,997.31
2019-06-01T00:55:19.110Z,997.25
2019-06-01T00:56:19.234Z,997.27
2019-06-01T00:57:22.127Z,997.26
2019-06-01T00:58:19.519Z,997.24
2019-06-01T00:59:19.665Z,997.25
2019-06-01T01:00:19.793Z,997.24
2019-06-01T01:01:19.947Z,997.26
2019-06-01T01:02:20.151Z,997.29
2019-06-01T01:03:20.197Z,997.24
2019-06-01T01:04:20.313Z,997.27
2019-06-01T01:05:20.487Z,997.25
2019-06-01T01:06:20.620Z,997.25
2019-06-01T01:07:20.747Z,997.22
2019-06-01T01:08:20.881Z,997.23
2019-06-01T01:09:21.091Z,997.23
2019-06-01T01:10:21.237Z,997.24
2019-06-01T01:11:21.242Z,997.25
2019-06-01T01:12:21.391Z,997.28
2019-06-01T01:13:21.530Z,997.27
2019-06-01T01:14:21.663Z,997.26
2019-06-01T01:15:21.828Z,997.29
2019-06-01T01:16:21.944Z,997.27
2019-06-01T01:17:22.088Z,997.30
2019-06-01T01:18:22.320Z,997.35
2019-06-01T01:19:22.322Z,997.33
2019-06-01T01:20:22.455Z,997.35
2019-06-01T01:21:22.613Z,997.35
2019-06-01T01:22:22.737Z,997.36
2019-06-01T01:23:22.872Z,997.34
2019-06-01T01:24:23.036Z,997.39
2019-06-01T01:25:23.168Z,997.34
2019-06-01T01:26:23.305Z,997.39
2019-06-01T01:27:23.444Z,997.33
2019-06-01T01:28:24.059Z,997.38
2019-06-01T01:29:23.724Z,997.37
2019-06-01T01:30:23.859Z,997.38
2019-06-01T01:31:23.998Z,997.41
2019-06-01T01:32:24.164Z,997.42
2019-06-01T01:33:24.242Z,997.41
2019-06-01T01:34:24.379Z,997.39
2019-06-01T01:35:24.526Z,997.40
2019-06-01T01:36:24.659Z,997.37
2019-06-01T01:37:24.785Z,997.35
2019-06-01T01:38:24.915Z,997.31
2019-06-01T01:39:25.084Z,997.37
2019-06-01T01:40:25.191Z,997.33
2019-06-01T01:41:25.324Z,997.35
2019-06-01T01:42:25.458Z,997.37
2019-06-01T01:43:25.649Z,997.38
2019-06-01T01:44:25.777Z,997.34
2019-06-01T01:45:25.917Z,997.36
2019-06-01T01:46:26.048Z,997.38
2019-06-01T01:47:26.193Z,997.31
2019-06-01T01:48:26.321Z,997.34
2019-06-01T01:49:26.457Z,997.30
2019-06-01T01:50:26.583Z,997.29
2019-06-01T01:51:26.759Z,997.30
2019-06-01T01:52:26.865Z,997.29
2019-06-01T01:53:26.995Z,997.28
2019-06-01T01:54:27.133Z,997.28
2019-06-01T01:55:27.289Z,997.24
2019-06-01T01:56:27.413Z,997.27
2019-06-01T01:57:27.538Z,997.21
2019-06-01T01:58:27.670Z,997.21
2019-06-01T01:59:27.822Z,997.19
2019-06-01T02:00:27.949Z,997.16
2019-06-01T02:01:28.076Z,997.18
2019-06-01T02:02:28.207Z,997.17
2019-06-01T02:03:28.367Z,997.18
2019-06-01T02:04:28.490Z,997.14
2019-06-01T02:05:28.635Z,997.10
2019-06-01T02:06:29.318Z,997.14
2019-06-01T02:07:28.921Z,997.13
2019-06-01T02:08:29.046Z,997.05
2019-06-01T02:09:29.175Z,997.09
2019-06-01T02:10:29.312Z,997.06
2019-06-01T02:11:29.437Z,997.01
2019-06-01T02:12:29.571Z,997.01
2019-06-01T02:13:29.716Z,997.05
2019-06-01T02:14:29.867Z,997.00
2019-06-01T02:15:29.995Z,997.01
2019-06-01T02:16:30.125Z,997.00
2019-06-01T02:17:30.261Z,997.05
2019-06-01T02:18:30.416Z,997.02
2019-06-01T02:19:30.541Z,997.04
2019-06-01T02:20:30.683Z,997.06
2019-06-01T02:21:30.841Z,996.98
2019-06-01T02:22:30.971Z,997.00
2019-06-01T02:23:31.102Z,997.00
2019-06-01T02:24:31.233Z,997.02
2019-06-01T02:25:31.358Z,997.00
2019-06-01T02:26:31.494Z,997.00
2019-06-01T02:27:31.642Z,996.99
2019-06-01T02:28:31.783Z,997.03
2019-06-01T02:29:31.909Z,996.98
2019-06-01T02:30:32.073Z,997.03
2019-06-01T02:31:41.525Z,996.97
2019-06-01T02:32:32.332Z,996.97
2019-06-01T02:33:32.539Z,996.97
2019-06-01T02:34:32.546Z,996.99
2019-06-01T02:35:32.687Z,997.00
2019-06-01T02:36:32.838Z,996.96
2019-06-01T02:37:32.979Z,996.93
2019-06-01T02:38:33.107Z,996.97
2019-06-01T02:39:33.239Z,996.94
2019-06-01T02:40:33.403Z,996.95
2019-06-01T02:41:33.619Z,996.97
2019-06-01T02:42:33.626Z,996.98
2019-06-01T02:43:33.759Z,996.95
2019-06-01T02:44:33.904Z,996.97
2019-06-01T02:45:34.049Z,996.97
2019-06-01T02:46:35.700Z,997.00
2019-06-01T02:47:34.280Z,997.00
2019-06-01T02:48:34.434Z,996.97
2019-06-01T02:49:34.573Z,997.01
2019-06-01T02:50:34.688Z,996.98
2019-06-01T02:51:34.820Z,996.99
2019-06-01T02:52:34.972Z,996.98
2019-06-01T02:53:35.101Z,996.98
2019-06-01T02:54:35.233Z,996.96
2019-06-01T02:55:35.361Z,996.99
2019-06-01T02:56:35.520Z,997.00
2019-06-01T02:57:35.667Z,997.04
2019-06-01T02:58:35.808Z,997.04
2019-06-01T02:59:35.936Z,997.06
2019-06-01T03:00:36.081Z,997.07
2019-06-01T03:01:36.237Z,997.05
2019-06-01T03:02:36.347Z,997.05
2019-06-01T03:03:36.478Z,997.06
2019-06-01T03:04:36.614Z,997.10
2019-06-01T03:05:36.751Z,997.09
2019-06-01T03:06:36.877Z,997.10
2019-06-01T03:07:37.007Z,997.08
2019-06-01T03:08:37.156Z,997.11
2019-06-01T03:09:37.279Z,997.11
2019-06-01T03:10:37.416Z,997.15
2019-06-01T03:11:37.542Z,997.14
2019-06-01T03:12:37.720Z,997.13
2019-06-01T03:13:37.856Z,997.14
2019-06-01T03:14:37.978Z,997.15
2019-06-01T03:15:38.108Z,997.14
2019-06-01T03:16:40.250Z,997.20
2019-06-01T03:17:38.378Z,997.18
2019-06-01T03:18:38.511Z,997.21
2019-06-01T03:19:38.639Z,997.20
2019-06-01T03:20:38.791Z,997.19
2019-06-01T03:21:38.916Z,997.20
2019-06-01T03:22:39.047Z,997.19
2019-06-01T03:23:39.177Z,997.20
2019-06-01T03:24:39.308Z,997.22
2019-06-01T03:25:39.544Z,997.16
2019-06-01T03:26:39.554Z,997.18
2019-06-01T03:27:39.683Z,997.15
2019-06-01T03:28:39.862Z,997.21
2019-06-01T03:29:39.963Z,997.17
2019-06-01T03:30:44.863Z,997.19
2019-06-01T03:31:40.236Z,997.18
2019-06-01T03:32:40.394Z,997.20
2019-06-01T03:33:40.620Z,997.19
2019-06-01T03:34:40.634Z,997.17
2019-06-01T03:35:40.761Z,997.19
2019-06-01T03:36:40.918Z,997.16
2019-06-01T03:37:41.043Z,997.15
2019-06-01T03:38:41.181Z,997.17
2019-06-01T03:39:41.312Z,997.15
2019-06-01T03:40:41.468Z,997.18
2019-06-01T03:41:41.582Z,997.19
2019-06-01T03:42:41.724Z,997.19
2019-06-01T03:43:41.850Z,997.24
2019-06-01T03:44:41.997Z,997.22
2019-06-01T03:45:42.130Z,997.20
2019-06-01T03:46:42.259Z,997.24
2019-06-01T03:47:42.390Z,997.21
2019-06-01T03:48:42.532Z,997.25
2019-06-01T03:49:42.674Z,997.24
2019-06-01T03:50:42.807Z,997.25
2019-06-01T03:51:42.936Z,997.22
2019-06-01T03:52:43.095Z,997.23
2019-06-01T03:53:43.229Z,997.23
2019-06-01T03:54:43.356Z,997.25
2019-06-01T03:55:43.489Z,997.26
2019-06-01T03:56:43.636Z,997.29
2019-06-01T03:57:43.760Z,997.27
2019-06-01T03:58:43.887Z,997.25
2019-06-01T03:59:44.040Z,997.26
2019-06-01T04:00:44.184Z,997.26
2019-06-01T04:01:47.033Z,997.24
2019-06-01T04:02:44.447Z,997.23
2019-06-01T04:03:44.602Z,997.26
2019-06-01T04:04:44.721Z,997.28
2019-06-01T04:05:44.856Z,997.27
2019-06-01T04:06:44.987Z,997.25
2019-06-01T04:07:45.145Z,997.25
2019-06-01T04:08:45.271Z,997.25
2019-06-01T04:09:45.413Z,997.29
2019-06-01T04:10:45.541Z,997.32
2019-06-01T04:11:45.693Z,997.28
2019-06-01T04:12:45.804Z,997.29
2019-06-01T04:13:45.962Z,997.33
2019-06-01T04:14:46.095Z,997.32
2019-06-01T04:15:46.227Z,997.33
2019-06-01T04:16:46.355Z,997.32
2019-06-01T04:17:46.487Z,997.31
2019-06-01T04:18:46.619Z,997.31
2019-06-01T04:19:46.755Z,997.28
2019-06-01T04:20:46.880Z,997.31
2019-06-01T04:21:47.018Z,997.24
2019-06-01T04:22:47.195Z,997.21
2019-06-01T04:23:47.325Z,997.23
2019-06-01T04:24:47.461Z,997.22
2019-06-01T04:25:47.612Z,997.23
2019-06-01T04:26:47.838Z,997.22
2019-06-01T04:27:47.840Z,997.18
2019-06-01T04:28:48.003Z,997.22
2019-06-01T04:29:48.126Z,997.20
2019-06-01T04:30:48.268Z,997.17
2019-06-01T04:31:48.385Z,997.22
2019-06-01T04:32:50.384Z,997.20
2019-06-01T04:33:48.653Z,997.20
2019-06-01T04:34:48.770Z,997.22
2019-06-01T04:35:48.911Z,997.21
2019-06-01T04:36:49.044Z,997.20
2019-06-01T04:37:49.190Z,997.25
2019-06-01T04:38:49.325Z,997.22
2019-06-01T04:39:49.443Z,997.21
2019-06-01T04:40:49.574Z,997.22
2019-06-01T04:41:49.741Z,997.24
2019-06-01T04:42:49.894Z,997.27
2019-06-01T04:43:50.007Z,997.30
2019-06-01T04:44:50.145Z,997.26
2019-06-01T04:45:50.316Z,997.26
2019-06-01T04:46:50.408Z,997.25
2019-06-01T04:47:50.553Z,997.29
2019-06-01T04:48:50.677Z,997.31
2019-06-01T04:49:50.833Z,997.31
2019-06-01T04:50:50.963Z,997.28
2019-06-01T04:51:51.124Z,997.28
2019-06-01T04:52:51.218Z,997.28
2019-06-01T04:53:51.363Z,997.27
2019-06-01T04:54:51.474Z,997.29
2019-06-01T04:55:51.618Z,997.33
2019-06-01T04:56:51.745Z,997.33
2019-06-01T04:57:51.890Z,997.25
2019-06-01T04:58:52.011Z,997.28
2019-06-01T04:59:52.151Z,997.29
2019-06-01T05:00:52.277Z,997.30
2019-06-01T05:01:52.433Z,997.31
2019-06-01T05:03:04.883Z,997.29
2019-06-01T05:03:52.700Z,997.25
2019-06-01T05:04:52.833Z,997.31
2019-06-01T05:05:52.985Z,997.31
2019-06-01T05:06:53.111Z,997.31
2019-06-01T05:07:53.247Z,997.32
2019-06-01T05:08:53.386Z,997.33
2019-06-01T05:09:53.525Z,997.36
2019-06-01T05:10:53.654Z,997.35
2019-06-01T05:11:53.787Z,997.36
2019-06-01T05:12:53.949Z,997.35
2019-06-01T05:13:54.086Z,997.34
2019-06-01T05:14:54.209Z,997.35
2019-06-01T05:15:54.344Z,997.33
2019-06-01T05:16:54.517Z,997.32
2019-06-01T05:17:54.616Z,997.38
2019-06-01T05:18:54.739Z,997.46
2019-06-01T05:19:54.876Z,997.47
2019-06-01T05:20:55.027Z,997.40
2019-06-01T05:21:55.161Z,997.41
2019-06-01T05:22:55.304Z,997.40
2019-06-01T05:23:55.449Z,997.38
2019-06-01T05:24:55.597Z,997.37
2019-06-01T05:25:55.727Z,997.37
2019-06-01T05:26:55.870Z,997.40
2019-06-01T05:27:55.990Z,997.40
2019-06-01T05:28:56.149Z,997.35
2019-06-01T05:29:56.281Z,997.34
2019-06-01T05:30:56.412Z,997.41
2019-06-01T05:31:56.536Z,997.39
2019-06-01T05:32:56.686Z,997.40
2019-06-01T05:33:56.815Z,997.38
2019-06-01T05:34:56.953Z,997.38
2019-06-01T05:35:57.086Z,997.32
2019-06-01T05:36:57.253Z,997.36
2019-06-01T05:37:57.378Z,997.36
2019-06-01T05:38:57.507Z,997.36
2019-06-01T05:39:57.655Z,997.35
2019-06-01T05:40:57.819Z,997.34
2019-06-01T05:41:57.917Z,997.32
2019-06-01T05:42:58.050Z,997.29
2019-06-01T05:43:58.191Z,997.27
2019-06-01T05:44:58.318Z,997.30
2019-06-01T05:45:58.456Z,997.37
2019-06-01T05:46:58.593Z,997.36
2019-06-01T05:47:58.733Z,997.34
2019-06-01T05:48:58.862Z,997.31
2019-06-01T05:49:58.999Z,997.30
2019-06-01T05:50:59.148Z,997.38
2019-06-01T05:51:59.354Z,997.37
2019-06-01T05:52:59.366Z,997.37
2019-06-01T05:53:59.496Z,997.37
2019-06-01T05:54:59.648Z,997.35
2019-06-01T05:55:59.782Z,997.38
2019-06-01T05:56:59.919Z,997.37
2019-06-01T05:58:00.058Z,997.37
2019-06-01T05:59:00.208Z,997.37
2019-06-01T06:00:00.350Z,997.38
2019-06-01T06:01:00.469Z,997.41
2019-06-01T06:02:00.603Z,997.47
2019-06-01T06:03:00.745Z,997.46
2019-06-01T06:04:00.877Z,997.48
2019-06-01T06:05:01.001Z,997.52
2019-06-01T06:06:01.146Z,997.56
2019-06-01T06:07:01.291Z,997.61
2019-06-01T06:08:01.512Z,997.58
2019-06-01T06:09:01.519Z,997.54
2019-06-01T06:10:01.659Z,997.54
2019-06-01T06:11:01.803Z,997.60
2019-06-01T06:12:01.962Z,997.60
2019-06-01T06:13:02.070Z,997.57
2019-06-01T06:14:02.199Z,997.62
2019-06-01T06:15:02.350Z,997.65
2019-06-01T06:16:02.486Z,997.63
2019-06-01T06:17:02.614Z,997.61
2019-06-01T06:18:02.749Z,997.56
2019-06-01T06:19:02.881Z,997.48
2019-06-01T06:20:03.027Z,997.56
2019-06-01T06:21:03.163Z,997.53
2019-06-01T06:22:03.286Z,997.52
2019-06-01T06:23:03.438Z,997.52
2019-06-01T06:24:03.566Z,997.52
2019-06-01T06:25:03.705Z,997.51
2019-06-01T06:26:03.830Z,997.48
2019-06-01T06:27:03.974Z,997.46
2019-06-01T06:28:04.099Z,997.41
2019-06-01T06:29:04.227Z,997.42
2019-06-01T06:30:04.371Z,997.40
2019-06-01T06:31:04.505Z,997.42
2019-06-01T06:32:04.744Z,997.44
2019-06-01T06:33:04.743Z,997.45
2019-06-01T06:34:04.882Z,997.42
2019-06-01T06:35:05.019Z,997.43
2019-06-01T06:36:05.149Z,997.44
2019-06-01T06:37:05.280Z,997.45
2019-06-01T06:38:05.410Z,997.46
2019-06-01T06:39:05.593Z,997.51
2019-06-01T06:40:05.708Z,997.55
2019-06-01T06:41:05.842Z,997.53
2019-06-01T06:42:05.979Z,997.56
2019-06-01T06:43:18.702Z,997.55
2019-06-01T06:44:06.246Z,997.57
2019-06-01T06:45:06.376Z,997.58
2019-06-01T06:46:06.512Z,997.56
2019-06-01T06:47:06.668Z,997.55
2019-06-01T06:48:06.900Z,997.56
2019-06-01T06:49:09.816Z,997.52
2019-06-01T06:50:07.053Z,997.50
2019-06-01T06:51:07.199Z,997.46
2019-06-01T06:52:07.339Z,997.49
2019-06-01T06:53:07.469Z,997.49
2019-06-01T06:54:07.612Z,997.52
2019-06-01T06:55:07.762Z,997.47
2019-06-01T06:56:07.981Z,997.49
2019-06-01T06:57:08.013Z,997.48
2019-06-01T06:58:08.132Z,997.45
2019-06-01T06:59:11.593Z,997.44
2019-06-01T07:00:08.528Z,997.43
2019-06-01T07:01:11.947Z,997.42
2019-06-01T07:02:08.659Z,997.37
2019-06-01T07:03:08.799Z,997.41
2019-06-01T07:04:12.633Z,997.40
2019-06-01T07:05:09.052Z,997.40
2019-06-01T07:06:09.189Z,997.40
2019-06-01T07:07:09.343Z,997.36
2019-06-01T07:08:09.480Z,997.36
2019-06-01T07:09:09.605Z,997.34
2019-06-01T07:10:09.748Z,997.31
2019-06-01T07:11:11.874Z,997.33
2019-06-01T07:12:10.042Z,997.30
2019-06-01T07:13:10.185Z,997.26
2019-06-01T07:14:10.330Z,997.27
2019-06-01T07:15:10.476Z,997.29
2019-06-01T07:16:10.601Z,997.30
2019-06-01T07:17:10.740Z,997.25
2019-06-01T07:18:10.903Z,997.30
2019-06-01T07:19:11.008Z,997.27
2019-06-01T07:20:11.151Z,997.26
2019-06-01T07:21:11.279Z,997.28
2019-06-01T07:22:11.448Z,997.30
2019-06-01T07:23:11.587Z,997.31
2019-06-01T07:24:11.701Z,997.31
2019-06-01T07:25:11.859Z,997.30
2019-06-01T07:26:12.002Z,997.28
2019-06-01T07:27:12.128Z,997.34
2019-06-01T07:28:12.275Z,997.36
2019-06-01T07:29:12.394Z,997.36
2019-06-01T07:30:12.534Z,997.34
2019-06-01T07:31:12.662Z,997.34
2019-06-01T07:32:12.789Z,997.27
2019-06-01T07:33:12.952Z,997.31
2019-06-01T07:34:29.641Z,997.35
2019-06-01T07:35:13.211Z,997.36
2019-06-01T07:36:13.350Z,997.36
2019-06-01T07:37:13.487Z,997.29
2019-06-01T07:38:13.615Z,997.38
2019-06-01T07:39:13.741Z,997.40
2019-06-01T07:40:14.363Z,997.36
2019-06-01T07:41:14.038Z,997.36
2019-06-01T07:42:14.171Z,997.35
2019-06-01T07:43:14.299Z,997.38
2019-06-01T07:44:14.444Z,997.36
2019-06-01T07:45:14.571Z,997.35
2019-06-01T07:46:14.710Z,997.37
2019-06-01T07:47:14.835Z,997.35
2019-06-01T07:48:15.001Z,997.35
2019-06-01T07:49:15.143Z,997.34
2019-06-01T07:50:15.272Z,997.35
2019-06-01T07:51:15.413Z,997.34
2019-06-01T07:52:15.534Z,997.32
2019-06-01T07:53:15.684Z,997.27
2019-06-01T07:54:16.142Z,997.27
2019-06-01T07:55:15.946Z,997.23
2019-06-01T07:56:16.074Z,997.23
2019-06-01T07:57:16.213Z,997.23
2019-06-01T07:58:16.341Z,997.25
2019-06-01T07:59:16.480Z,997.23
2019-06-01T08:00:16.609Z,997.19
2019-06-01T08:01:16.758Z,997.22
2019-06-01T08:02:16.903Z,997.22
2019-06-01T08:03:17.024Z,997.26
2019-06-01T08:04:17.175Z,997.25
2019-06-01T08:05:17.291Z,997.19
2019-06-01T08:06:17.434Z,997.24
2019-06-01T08:07:17.577Z,997.23
2019-06-01T08:08:17.712Z,997.21
2019-06-01T08:09:17.841Z,997.17
2019-06-01T08:10:17.990Z,997.22
2019-06-01T08:11:18.110Z,997.22
2019-06-01T08:12:18.238Z,997.22
2019-06-01T08:13:18.381Z,997.24
2019-06-01T08:14:18.520Z,997.23
2019-06-01T08:15:18.648Z,997.24
2019-06-01T08:16:18.789Z,997.24
2019-06-01T08:17:18.922Z,997.17
2019-06-01T08:18:19.056Z,997.25
2019-06-01T08:19:19.198Z,997.20
2019-06-01T08:20:19.339Z,997.18
2019-06-01T08:21:19.469Z,997.19
2019-06-01T08:22:19.594Z,997.21
2019-06-01T08:23:19.730Z,997.17
2019-06-01T08:24:19.871Z,997.13
2019-06-01T08:25:19.988Z,997.15
2019-06-01T08:26:20.229Z,997.17
2019-06-01T08:27:20.280Z,997.14
2019-06-01T08:28:20.413Z,997.18
2019-06-01T08:29:20.552Z,997.16
2019-06-01T08:30:20.689Z,997.12
2019-06-01T08:31:20.828Z,997.15
2019-06-01T08:32:20.956Z,997.12
2019-06-01T08:33:21.106Z,997.13
2019-06-01T08:34:21.226Z,997.11
2019-06-01T08:35:21.365Z,997.07
2019-06-01T08:36:21.500Z,997.08
2019-06-01T08:37:21.642Z,997.09
2019-06-01T08:38:23.231Z,997.08
2019-06-01T08:39:23.361Z,997.09
2019-06-01T08:40:23.196Z,997.10
2019-06-01T08:41:23.345Z,997.07
2019-06-01T08:42:23.426Z,997.07
2019-06-01T08:43:23.534Z,997.05
2019-06-01T08:44:23.546Z,997.05
2019-06-01T08:45:23.520Z,997.04
2019-06-01T08:46:23.697Z,997.05
2019-06-01T08:47:23.618Z,997.03
2019-06-01T08:48:23.659Z,997.00
2019-06-01T08:49:23.884Z,996.97
2019-06-01T08:50:23.805Z,996.97
2019-06-01T08:51:23.979Z,996.90
2019-06-01T08:52:23.902Z,996.87
2019-06-01T08:53:23.864Z,996.88
2019-06-01T08:54:24.101Z,996.86
2019-06-01T08:55:24.104Z,996.86
2019-06-01T08:56:24.299Z,996.91
2019-06-01T08:57:24.353Z,996.91
2019-06-01T08:58:24.492Z,996.90
2019-06-01T08:59:24.627Z,996.86
2019-06-01T09:00:24.756Z,996.86
2019-06-01T09:01:24.890Z,996.85
2019-06-01T09:02:25.040Z,996.89
2019-06-01T09:03:25.818Z,996.89
2019-06-01T09:04:26.534Z,996.89
2019-06-01T09:05:26.833Z,996.92
2019-06-01T09:06:26.667Z,996.93
2019-06-01T09:07:26.874Z,996.91
2019-06-01T09:08:27.041Z,996.85
2019-06-01T09:09:26.909Z,996.86
2019-06-01T09:10:27.451Z,996.81
2019-06-01T09:11:27.046Z,996.79
2019-06-01T09:12:27.267Z,996.81
2019-06-01T09:13:27.171Z,996.79
2019-06-01T09:14:27.229Z,996.78
2019-06-01T09:15:27.555Z,996.79
2019-06-01T09:16:27.780Z,996.79
2019-06-01T09:17:27.222Z,996.85
2019-06-01T09:18:27.580Z,996.79
2019-06-01T09:19:27.437Z,996.82
2019-06-01T09:20:27.569Z,996.81
2019-06-01T09:21:27.689Z,996.84
2019-06-01T09:22:27.865Z,996.83
2019-06-01T09:23:28.001Z,996.79
2019-06-01T09:24:28.165Z,996.79
2019-06-01T09:25:28.283Z,996.77
2019-06-01T09:26:29.671Z,996.84
2019-06-01T09:27:29.686Z,996.78
2019-06-01T09:28:29.827Z,996.74
2019-06-01T09:29:30.037Z,996.79
2019-06-01T09:30:29.898Z,996.75
2019-06-01T09:31:30.334Z,996.69
2019-06-01T09:32:30.064Z,996.71
2019-06-01T09:33:30.157Z,996.67
2019-06-01T09:34:30.463Z,996.70
2019-06-01T09:35:51.247Z,996.72
2019-06-01T09:36:30.385Z,996.72
2019-06-01T09:37:30.561Z,996.68
2019-06-01T09:38:30.047Z,996.66
2019-06-01T09:39:30.971Z,996.65
2019-06-01T09:40:31.608Z,996.61
2019-06-01T09:41:30.541Z,996.62
2019-06-01T09:42:30.781Z,996.57
2019-06-01T09:43:31.233Z,996.54
2019-06-01T09:44:31.977Z,996.55
2019-06-01T09:45:32.858Z,996.62
2019-06-01T09:46:32.036Z,996.53
2019-06-01T09:47:31.303Z,996.61
2019-06-01T09:48:31.507Z,996.55
2019-06-01T09:49:33.581Z,996.53
2019-06-01T09:50:31.733Z,996.57
2019-06-01T09:51:31.886Z,996.58
2019-06-01T09:52:32.017Z,996.63
2019-06-01T09:53:32.552Z,996.54
2019-06-01T09:54:33.083Z,996.53
2019-06-01T09:55:32.785Z,996.53
2019-06-01T09:56:33.983Z,996.52
2019-06-01T09:57:34.104Z,996.51
2019-06-01T09:58:32.865Z,996.63
2019-06-01T09:59:34.005Z,996.57
2019-06-01T10:00:33.147Z,996.56
2019-06-01T10:01:34.406Z,996.51
2019-06-01T10:02:34.122Z,996.52
2019-06-01T10:03:34.461Z,996.48
2019-06-01T10:04:34.422Z,996.50
2019-06-01T10:05:34.840Z,996.48
2019-06-01T10:06:34.682Z,996.44
2019-06-01T10:07:34.856Z,996.46
2019-06-01T10:08:34.472Z,996.49
2019-06-01T10:09:35.710Z,996.52
2019-06-01T10:10:35.907Z,996.43
2019-06-01T10:11:35.971Z,996.44
2019-06-01T10:12:35.970Z,996.49
2019-06-01T10:13:36.296Z,996.50
2019-06-01T10:14:36.167Z,996.47
2019-06-01T10:15:36.388Z,996.47
2019-06-01T10:16:36.661Z,996.46
2019-06-01T10:17:36.997Z,996.40
2019-06-01T10:18:36.946Z,996.39
2019-06-01T10:19:36.737Z,996.45
2019-06-01T10:20:36.960Z,996.41
2019-06-01T10:21:36.170Z,996.39
2019-06-01T10:22:37.187Z,996.38
2019-06-01T10:23:36.622Z,996.43
2019-06-01T10:24:37.239Z,996.33
2019-06-01T10:25:36.615Z,996.32
2019-06-01T10:26:37.597Z,996.37
2019-06-01T10:27:36.911Z,996.37
2019-06-01T10:28:37.783Z,996.30
2019-06-01T10:29:37.186Z,996.31
2019-06-01T10:30:37.945Z,996.29
2019-06-01T10:31:41.008Z,996.24
2019-06-01T10:32:38.008Z,996.20
2019-06-01T10:33:38.943Z,996.24
2019-06-01T10:34:37.910Z,996.27
2019-06-01T10:35:38.949Z,996.30
2019-06-01T10:36:38.180Z,996.30
2019-06-01T10:37:39.508Z,996.33
2019-06-01T10:38:39.345Z,996.56
2019-06-01T10:39:39.416Z,996.59
2019-06-01T10:40:39.865Z,996.45
2019-06-01T10:41:39.682Z,996.36
2019-06-01T10:42:39.873Z,996.33
2019-06-01T10:43:39.760Z,996.28
2019-06-01T10:44:44.035Z,996.30
2019-06-01T10:45:39.887Z,996.26
2019-06-01T10:46:40.180Z,996.22
2019-06-01T10:47:40.103Z,996.24
2019-06-01T10:48:40.134Z,996.22
2019-06-01T10:49:40.164Z,996.18
2019-06-01T10:50:40.622Z,996.14
2019-06-01T10:51:40.482Z,996.17
2019-06-01T10:52:40.493Z,996.15
2019-06-01T10:53:41.993Z,996.12
2019-06-01T10:54:40.695Z,996.17
2019-06-01T10:55:40.830Z,996.14
2019-06-01T10:56:40.960Z,996.18
2019-06-01T10:57:41.099Z,996.12
2019-06-01T10:58:57.286Z,996.16
2019-06-01T10:59:42.517Z,996.16
2019-06-01T11:00:46.698Z,996.15
2019-06-01T11:01:42.611Z,996.13
2019-06-01T11:02:43.126Z,996.09
2019-06-01T11:03:42.877Z,996.12
2019-06-01T11:04:43.465Z,996.08
2019-06-01T11:05:42.992Z,996.08
2019-06-01T11:06:47.889Z,996.05
2019-06-01T11:07:43.092Z,996.09
2019-06-01T11:08:43.202Z,996.03
2019-06-01T11:09:43.222Z,996.02
2019-06-01T11:10:43.306Z,996.00
2019-06-01T11:11:43.262Z,996.00
2019-06-01T11:12:43.372Z,995.98
2019-06-01T11:13:43.412Z,996.00
2019-06-01T11:14:43.515Z,995.95
2019-06-01T11:15:43.655Z,995.89
2019-06-01T11:16:44.258Z,995.91
2019-06-01T11:17:43.953Z,995.93
2019-06-01T11:18:44.085Z,995.85
2019-06-01T11:19:44.218Z,995.82
2019-06-01T11:20:44.394Z,995.86
2019-06-01T11:21:44.542Z,995.87
2019-06-01T11:22:44.682Z,995.93
2019-06-01T11:23:46.550Z,995.95
2019-06-01T11:24:44.964Z,995.84
2019-06-01T11:25:45.116Z,995.85
2019-06-01T11:26:45.257Z,995.86
2019-06-01T11:27:45.400Z,995.90
2019-06-01T11:28:45.540Z,995.89
2019-06-01T11:29:51.229Z,995.84
2019-06-01T11:30:45.800Z,995.88
2019-06-01T11:31:45.939Z,995.93
2019-06-01T11:32:46.109Z,995.88
2019-06-01T11:33:46.249Z,995.85
2019-06-01T11:34:46.417Z,995.83
2019-06-01T11:35:46.517Z,995.76
2019-06-01T11:37:04.342Z,995.82
2019-06-01T11:37:46.800Z,995.82
2019-06-01T11:38:46.947Z,995.81
2019-06-01T11:39:47.093Z,995.81
2019-06-01T11:40:47.224Z,995.84
2019-06-01T11:41:47.372Z,995.81
2019-06-01T11:42:47.501Z,995.79
2019-06-01T11:43:47.632Z,995.89
2019-06-01T11:44:47.778Z,995.90
2019-06-01T11:45:47.911Z,995.81
2019-06-01T11:46:48.054Z,995.82
2019-06-01T11:47:48.192Z,995.74
2019-06-01T11:48:48.336Z,995.70
2019-06-01T11:49:48.463Z,995.67
2019-06-01T11:50:48.608Z,995.64
2019-06-01T11:51:48.749Z,995.66
2019-06-01T11:52:48.906Z,995.59
2019-06-01T11:53:49.032Z,995.63
2019-06-01T11:54:49.170Z,995.57
2019-06-01T11:55:49.310Z,995.57
2019-06-01T11:56:49.449Z,995.56
2019-06-01T11:57:49.595Z,995.58
2019-06-01T11:58:49.733Z,995.61
2019-06-01T11:59:49.871Z,995.52
2019-06-01T12:00:50.015Z,995.52
2019-06-01T12:01:50.160Z,995.51
2019-06-01T12:02:50.290Z,995.52
2019-06-01T12:03:50.424Z,995.56
2019-06-01T12:04:50.561Z,995.50
2019-06-01T12:05:50.731Z,995.48
2019-06-01T12:06:50.842Z,995.45
2019-06-01T12:07:50.976Z,995.41
2019-06-01T12:08:51.113Z,995.44
2019-06-01T12:09:51.259Z,995.45
2019-06-01T12:10:51.383Z,995.46
2019-06-01T12:11:51.601Z,995.53
2019-06-01T12:12:51.678Z,995.53
2019-06-01T12:13:51.826Z,995.48
2019-06-01T12:14:51.970Z,995.50
2019-06-01T12:15:52.101Z,995.48
2019-06-01T12:16:52.250Z,995.48
2019-06-01T12:17:52.384Z,995.44
2019-06-01T12:18:52.526Z,995.42
2019-06-01T12:19:52.666Z,995.47
2019-06-01T12:20:52.809Z,995.45
2019-06-01T12:21:52.933Z,995.41
2019-06-01T12:22:53.075Z,995.41
2019-06-01T12:23:53.211Z,995.47
2019-06-01T12:24:53.344Z,995.48
2019-06-01T12:25:53.488Z,995.40
2019-06-01T12:26:53.624Z,995.44
2019-06-01T12:27:53.774Z,995.42
2019-06-01T12:28:53.922Z,995.38
2019-06-01T12:29:54.055Z,995.35